Time;durP1;ratioP1;P1;durP2;ratioP2;P2;SDS_P1;SDS_P2;PMS_P1;PMS_P2;Temp;Humidity;BMP_temperature;BMP_pressure;BME280_temperature;BME280_humidity;BME280_pressure;Samples;Min_cycle;Max_cycle;Signal;HPM_P1;HPM_P2
2021/07/14 00:01:59;;;;;;;;;;;;;;;24.51;64.14;97538.08;1760137;81;24457;-84
2021/07/14 00:04:25;;;;;;;;;;;;;;;24.53;64.13;97540.55;1763156;81;20493;-84
2021/07/14 00:06:51;;;;;;;;;;;;;;;24.52;64.10;97538.39;1764069;81;20256;-85
2021/07/14 00:09:16;;;;;;;;;;;;;;;24.50;64.09;97544.98;1758648;81;20906;-84
2021/07/14 00:11:55;;;;;;;;;;;;;;;24.49;64.08;97546.83;1762549;81;20968;-84
2021/07/14 00:22:41;;;;;;;;;;;;;;;24.23;63.92;97538.16;1764779;79;22687;-84
2021/07/14 00:25:12;;;;;;;;;;;;;;;24.09;64.04;97544.09;1761830;81;26353;-84
2021/07/14 00:27:43;;;;;;;;;;;;;;;24.02;64.19;97536.62;1763667;81;24481;-88
2021/07/14 00:30:15;;;;;;;;;;;;;;;23.96;64.40;97536.12;1760694;81;20239;-88
2021/07/14 00:32:41;;;;;;;;;;;;;;;23.87;64.53;97533.41;1762528;81;24941;-88
2021/07/14 00:35:08;;;;;;;;;;;;;;;23.75;64.63;97534.08;1765022;81;22098;-88
2021/07/14 00:37:35;;;;;;;;;;;;;;;23.74;64.76;97529.76;1757062;81;26206;-88
2021/07/14 00:40:01;;;;;;;;;;;;;;;23.75;64.87;97533.25;1744274;81;24550;-88
2021/07/14 00:42:27;;;;;;;;;;;;;;;23.81;64.96;97539.09;1744206;82;20349;-88
2021/07/14 00:44:56;;;;;;;;;;;;;;;23.88;65.04;97535.88;1738623;82;25017;-89
2021/07/14 00:47:25;;;;;;;;;;;;;;;23.93;65.10;97540.06;1745065;82;21955;-89
2021/07/14 00:49:53;;;;;;;;;;;;;;;23.99;65.12;97543.22;1746392;82;26082;-88
2021/07/14 00:52:20;;;;;;;;;;;;;;;24.02;65.16;97546.80;1745480;82;24739;-88
2021/07/14 00:54:46;;;;;;;;;;;;;;;24.01;65.16;97545.66;1744030;82;20185;-89
2021/07/14 00:57:15;;;;;;;;;;;;;;;24.02;65.17;97545.45;1744277;80;25145;-88
2021/07/14 00:59:40;;;;;;;;;;;;;;;24.04;65.17;97539.39;1737331;82;22016;-89
2021/07/14 01:02:06;;;;;;;;;;;;;;;24.02;65.17;97543.30;1747569;82;25975;-89
2021/07/14 01:04:34;;;;;;;;;;;;;;;24.04;65.15;97538.56;1750149;82;24420;-89
2021/07/14 01:07:20;;;;;;;;;;;;;;;24.07;65.16;97534.12;1743356;82;20571;-87
2021/07/14 01:09:48;;;;;;;;;;;;;;;24.07;65.11;97532.78;1739549;82;24945;-87
2021/07/14 01:12:16;;;;;;;;;;;;;;;24.13;65.12;97531.92;1744915;82;21997;-87
2021/07/14 01:14:50;;;;;;;;;;;;;;;24.11;65.13;97534.02;1730496;82;26733;-88
2021/07/14 01:17:22;;;;;;;;;;;;;;;24.07;65.09;97538.13;1748867;82;25226;-88
2021/07/14 01:20:05;;;;;;;;;;;;;;;24.01;65.09;97538.98;1749158;82;20242;-88
2021/07/14 01:22:33;;;;;;;;;;;;;;;23.96;65.09;97542.30;1742212;82;24945;-88
2021/07/14 01:25:03;;;;;;;;;;;;;;;23.80;65.09;97544.13;1747204;82;22218;-88
2021/07/14 01:27:34;;;;;;;;;;;;;;;23.63;65.20;97545.63;1749652;82;26719;-85
2021/07/14 01:30:00;;;;;;;;;;;;;;;23.41;65.30;97547.72;1746983;82;24465;-85
2021/07/14 01:32:27;;;;;;;;;;;;;;;23.22;65.43;97544.59;1745309;82;20584;-85
2021/07/14 01:34:55;;;;;;;;;;;;;;;23.05;65.60;97547.39;1707516;83;24976;-85
2021/07/14 01:37:22;;;;;;;;;;;;;;;22.90;65.82;97544.45;1676971;84;22825;-85
2021/07/14 01:39:50;;;;;;;;;;;;;;;22.91;66.05;97544.73;1687760;83;26811;-85
2021/07/14 01:42:18;;;;;;;;;;;;;;;23.04;66.22;97541.74;1732484;81;24734;-85
2021/07/14 01:44:48;;;;;;;;;;;;;;;23.15;66.37;97547.78;1733020;81;20176;-85
2021/07/14 01:47:14;;;;;;;;;;;;;;;23.20;66.46;97551.98;1703085;84;25055;-85
2021/07/14 01:49:42;;;;;;;;;;;;;;;23.16;66.54;97544.92;1702852;84;21942;-85
2021/07/14 01:52:09;;;;;;;;;;;;;;;23.01;66.63;97546.17;1715254;83;25599;-85
2021/07/14 01:54:36;;;;;;;;;;;;;;;22.87;66.72;97542.69;1730763;82;23984;-85
2021/07/14 01:57:03;;;;;;;;;;;;;;;22.76;66.83;97541.97;1728965;82;20294;-85
2021/07/14 01:59:30;;;;;;;;;;;;;;;22.67;66.96;97542.67;1726053;82;25539;-85
2021/07/14 02:01:57;;;;;;;;;;;;;;;22.63;67.15;97541.45;1723958;82;21949;-85
2021/07/14 02:04:30;;;;;;;;;;;;;;;22.59;67.33;97538.86;1731581;82;26741;-85
2021/07/14 02:06:59;;;;;;;;;;;;;;;22.56;67.47;97540.61;1695904;82;20204;-85
2021/07/14 02:09:26;;;;;;;;;;;;;;;22.52;67.65;97534.05;1728327;82;20295;-86
2021/07/14 02:11:53;;;;;;;;;;;;;;;22.49;67.78;97533.94;1726745;82;25131;-86
2021/07/14 02:14:21;;;;;;;;;;;;;;;22.53;67.94;97535.67;1728634;82;22238;-86
2021/07/14 02:16:49;;;;;;;;;;;;;;;22.61;68.06;97530.66;1728085;82;26785;-86
2021/07/14 02:19:17;;;;;;;;;;;;;;;22.61;68.16;97529.33;1725982;82;25180;-86
2021/07/14 02:21:43;;;;;;;;;;;;;;;22.54;68.25;97526.65;1731346;82;20542;-86
2021/07/14 02:24:13;;;;;;;;;;;;;;;22.52;68.35;97523.39;1726913;81;24968;-86
2021/07/14 02:26:41;;;;;;;;;;;;;;;22.42;68.44;97531.77;1726249;82;22041;-86
2021/07/14 02:29:07;;;;;;;;;;;;;;;22.39;68.58;97534.03;1727813;82;26171;-86
2021/07/14 02:31:33;;;;;;;;;;;;;;;22.45;68.70;97533.22;1732515;82;24399;-86
2021/07/14 02:34:00;;;;;;;;;;;;;;;22.61;68.80;97539.48;1723971;82;20180;-86
2021/07/14 02:36:28;;;;;;;;;;;;;;;22.71;68.89;97538.59;1728472;82;24958;-86
2021/07/14 02:38:57;;;;;;;;;;;;;;;22.70;68.94;97543.58;1730521;82;22789;-86
2021/07/14 02:41:32;;;;;;;;;;;;;;;22.72;68.99;97541.57;1729198;82;26044;-85
2021/07/14 02:44:00;;;;;;;;;;;;;;;22.60;69.02;97551.17;1731477;82;24477;-86
2021/07/14 02:46:31;;;;;;;;;;;;;;;22.61;69.07;97552.00;1727434;81;20350;-86
2021/07/14 02:48:58;;;;;;;;;;;;;;;22.72;69.14;97550.08;1729098;82;25204;-86
2021/07/14 02:51:26;;;;;;;;;;;;;;;22.75;69.16;97553.15;1729495;82;21996;-86
2021/07/14 02:53:54;;;;;;;;;;;;;;;22.79;69.22;97554.41;1730283;82;26056;-86
2021/07/14 02:56:21;;;;;;;;;;;;;;;22.75;69.28;97559.00;1729283;82;24456;-86
2021/07/14 02:58:49;;;;;;;;;;;;;;;22.61;69.32;97554.16;1728492;82;20278;-85
2021/07/14 03:01:15;;;;;;;;;;;;;;;22.63;69.41;97556.11;1727933;82;25015;-86
2021/07/14 03:03:42;;;;;;;;;;;;;;;22.61;69.50;97563.48;1731432;82;22033;-86
2021/07/14 03:06:11;;;;;;;;;;;;;;;22.63;69.61;97568.63;1730772;82;26030;-86
2021/07/14 03:08:38;;;;;;;;;;;;;;;22.68;69.70;97570.17;1721192;82;24603;-86
2021/07/14 03:11:04;;;;;;;;;;;;;;;22.72;69.82;97570.91;1728480;82;20538;-86
2021/07/14 03:13:31;;;;;;;;;;;;;;;22.71;69.88;97565.27;1726479;82;24939;-85
2021/07/14 03:15:58;;;;;;;;;;;;;;;22.76;69.98;97565.98;1728461;82;22054;-85
2021/07/14 03:18:26;;;;;;;;;;;;;;;22.75;70.04;97562.48;1723664;82;26045;-85
2021/07/14 03:20:53;;;;;;;;;;;;;;;22.80;70.11;97564.56;1727614;82;24605;-85
2021/07/14 03:23:20;;;;;;;;;;;;;;;22.81;70.16;97564.34;1694611;82;20253;-85
2021/07/14 03:25:48;;;;;;;;;;;;;;;22.78;70.21;97567.94;1772462;80;25027;-85
2021/07/14 03:28:14;;;;;;;;;;;;;;;22.69;70.21;97573.15;1770924;79;22076;-85
2021/07/14 03:30:40;;;;;;;;;;;;;;;22.61;70.28;97564.82;1773214;80;26086;-85
2021/07/14 03:33:06;;;;;;;;;;;;;;;22.63;70.30;97571.30;1774151;80;24392;-88
2021/07/14 03:35:33;;;;;;;;;;;;;;;22.66;70.36;97565.03;1771498;80;20246;-88
2021/07/14 03:38:03;;;;;;;;;;;;;;;22.58;70.45;97563.09;1772913;80;24886;-88
2021/07/14 03:40:27;;;;;;;;;;;;;;;22.40;70.53;97565.01;1759787;80;22830;-88
2021/07/14 03:42:55;;;;;;;;;;;;;;;22.31;70.66;97553.70;1745452;82;26269;-88
2021/07/14 03:45:22;;;;;;;;;;;;;;;22.32;70.79;97550.01;1744740;82;25081;-88
2021/07/14 03:47:50;;;;;;;;;;;;;;;22.38;70.97;97555.05;1745232;81;20297;-85
2021/07/14 03:50:16;;;;;;;;;;;;;;;22.43;71.11;97552.59;1746412;82;25759;-85
2021/07/14 03:52:44;;;;;;;;;;;;;;;22.60;71.28;97555.17;1746420;82;22157;-85
2021/07/14 03:55:11;;;;;;;;;;;;;;;22.70;71.38;97556.09;1745809;82;26770;-84
2021/07/14 03:57:38;;;;;;;;;;;;;;;22.77;71.45;97557.78;1747311;82;24476;-84
2021/07/14 04:00:07;;;;;;;;;;;;;;;22.79;71.49;97551.73;1744869;82;20593;-84
2021/07/14 04:02:35;;;;;;;;;;;;;;;22.84;71.53;97554.61;1744613;82;26383;-84
2021/07/14 04:05:01;;;;;;;;;;;;;;;22.93;71.57;97556.53;1745345;82;23474;-84
2021/07/14 04:07:28;;;;;;;;;;;;;;;22.94;71.61;97554.18;1744829;82;20960;-85
2021/07/14 04:09:54;;;;;;;;;;;;;;;22.86;71.68;97545.86;1745400;82;24513;-84
2021/07/14 04:12:20;;;;;;;;;;;;;;;22.81;71.71;97545.66;1744617;82;20353;-85
2021/07/14 04:14:46;;;;;;;;;;;;;;;22.75;71.79;97534.48;1747225;81;24949;-84
2021/07/14 04:17:12;;;;;;;;;;;;;;;22.64;71.87;97531.05;1745081;82;21939;-84
2021/07/14 04:19:40;;;;;;;;;;;;;;;22.57;71.97;97530.77;1744979;82;21125;-84
2021/07/14 04:22:08;;;;;;;;;;;;;;;22.52;72.07;97536.21;1743709;82;38643;-84
2021/07/14 04:24:34;;;;;;;;;;;;;;;22.58;72.22;97541.75;1745909;82;20156;-84
2021/07/14 04:27:00;;;;;;;;;;;;;;;22.63;72.36;97531.28;1743737;82;20867;-84
2021/07/14 04:29:32;;;;;;;;;;;;;;;22.76;72.49;97532.63;1744129;82;22600;-84
2021/07/14 04:31:58;;;;;;;;;;;;;;;22.86;72.61;97531.19;1745613;82;26073;-84
2021/07/14 04:34:25;;;;;;;;;;;;;;;22.91;72.70;97530.59;1745632;82;24522;-84
2021/07/14 04:36:51;;;;;;;;;;;;;;;22.87;72.77;97526.16;1746041;81;20251;-84
2021/07/14 04:39:18;;;;;;;;;;;;;;;22.82;72.85;97516.63;1748115;82;25024;-84
2021/07/14 04:41:44;;;;;;;;;;;;;;;22.76;72.93;97510.78;1756771;80;21983;-84
2021/07/14 04:44:10;;;;;;;;;;;;;;;22.63;73.04;97508.11;1762525;81;26792;-84
2021/07/14 04:46:37;;;;;;;;;;;;;;;22.56;73.10;97509.94;1760537;80;24489;-84
2021/07/14 04:49:03;;;;;;;;;;;;;;;22.60;73.23;97499.16;1761172;81;20282;-84
2021/07/14 04:51:29;;;;;;;;;;;;;;;22.77;73.35;97499.59;1762563;81;25603;-86
2021/07/14 04:53:55;;;;;;;;;;;;;;;22.90;73.45;97493.75;1761411;81;22012;-84
2021/07/14 04:56:21;;;;;;;;;;;;;;;22.96;73.57;97487.27;1761686;81;21088;-83
2021/07/14 04:58:48;;;;;;;;;;;;;;;23.01;73.61;97490.95;1741791;81;24621;-84
2021/07/14 05:01:14;;;;;;;;;;;;;;;23.01;73.65;97492.80;1703813;83;20313;-84
2021/07/14 05:03:44;;;;;;;;;;;;;;;23.02;73.67;97493.91;1702933;83;25043;-84
2021/07/14 05:06:13;;;;;;;;;;;;;;;23.06;73.72;97494.33;1676258;83;20200;-84
2021/07/14 05:08:39;;;;;;;;;;;;;;;23.15;73.77;97498.40;1722257;83;26731;-84
2021/07/14 05:11:05;;;;;;;;;;;;;;;23.18;73.81;97498.00;1686560;85;24460;-83
2021/07/14 05:13:31;;;;;;;;;;;;;;;23.21;73.83;97504.24;1712415;83;20328;-84
2021/07/14 05:15:57;;;;;;;;;;;;;;;23.24;73.88;97507.30;1701901;83;24940;-84
2021/07/14 05:18:23;;;;;;;;;;;;;;;23.30;73.91;97512.31;1717071;82;20237;-84
2021/07/14 05:20:49;;;;;;;;;;;;;;;23.34;73.93;97501.03;1715711;83;26165;-84
2021/07/14 05:23:18;;;;;;;;;;;;;;;23.39;73.97;97503.06;1716765;83;24423;-84
2021/07/14 05:25:44;;;;;;;;;;;;;;;23.42;73.97;97507.97;1715892;83;20535;-85
2021/07/14 05:28:12;;;;;;;;;;;;;;;23.36;73.95;97512.30;1715907;83;20347;-85
2021/07/14 05:30:50;;;;;;;;;;;;;;;23.33;74.00;97512.73;1716915;83;21937;-84
2021/07/14 05:33:14;;;;;;;;;;;;;;;23.36;74.05;97516.31;1719514;82;26016;-85
2021/07/14 05:35:40;;;;;;;;;;;;;;;23.38;74.10;97516.11;1692039;84;24467;-85
2021/07/14 05:38:19;;;;;;;;;;;;;;;23.32;74.17;97519.61;1693240;84;20302;-85
2021/07/14 05:40:40;;;;;;;;;;;;;;;23.26;74.27;97528.46;1693947;84;25143;-85
2021/07/14 05:43:06;;;;;;;;;;;;;;;23.17;74.35;97517.71;1688614;83;20268;-85
2021/07/14 05:45:34;;;;;;;;;;;;;;;23.17;74.46;97527.88;1713656;83;26682;-84
2021/07/14 05:48:00;;;;;;;;;;;;;;;23.15;74.58;97521.09;1712920;83;24492;-84
2021/07/14 05:50:27;;;;;;;;;;;;;;;23.12;74.68;97521.01;1719383;82;20258;-84
2021/07/14 05:52:53;;;;;;;;;;;;;;;23.11;74.79;97514.53;1714425;82;24986;-86
2021/07/14 05:55:20;;;;;;;;;;;;;;;23.15;74.82;97511.23;1712469;83;21992;-84
2021/07/14 05:57:53;;;;;;;;;;;;;;;23.24;74.79;97519.83;1710165;83;26009;-84
2021/07/14 06:00:19;;;;;;;;;;;;;;;23.36;74.76;97523.50;1713059;83;25376;-84
2021/07/14 06:02:45;;;;;;;;;;;;;;;23.50;74.76;97522.47;1712167;83;20834;-84
2021/07/14 06:05:12;;;;;;;;;;;;;;;23.67;74.63;97518.81;1711025;83;24943;-85
2021/07/14 06:07:45;;;;;;;;;;;;;;;23.85;74.46;97524.26;1712985;83;22790;-85
2021/07/14 06:10:11;;;;;;;;;;;;;;;23.99;74.30;97527.70;1727450;82;26090;-85
2021/07/14 06:12:37;;;;;;;;;;;;;;;24.10;74.20;97521.67;1725142;82;24424;-84
2021/07/14 06:15:04;;;;;;;;;;;;;;;24.27;73.91;97530.86;1730856;82;20225;-85
2021/07/14 06:17:30;;;;;;;;;;;;;;;24.46;73.64;97534.41;1727468;82;24979;-85
2021/07/14 06:19:59;;;;;;;;;;;;;;;24.66;73.42;97530.27;1731361;82;20319;-85
2021/07/14 06:22:27;;;;;;;;;;;;;;;24.88;73.17;97532.86;1698057;82;26670;-85
2021/07/14 06:24:54;;;;;;;;;;;;;;;25.10;72.84;97542.13;1725188;82;24465;-85
2021/07/14 06:27:20;;;;;;;;;;;;;;;25.34;72.42;97531.09;1727161;82;20169;-85
2021/07/14 06:29:46;;;;;;;;;;;;;;;25.56;72.06;97530.15;1735675;80;20268;-85
2021/07/14 06:32:12;;;;;;;;;;;;;;;25.76;71.69;97530.72;1716936;83;20375;-85
2021/07/14 06:34:41;;;;;;;;;;;;;;;25.97;71.31;97530.75;1715495;83;26755;-85
2021/07/14 06:37:10;;;;;;;;;;;;;;;26.17;70.97;97530.80;1724251;83;25191;-86
2021/07/14 06:39:36;;;;;;;;;;;;;;;26.39;70.58;97527.11;1723996;82;20218;-85
2021/07/14 06:42:03;;;;;;;;;;;;;;;26.59;70.28;97529.47;1719596;81;24990;-85
2021/07/14 06:44:30;;;;;;;;;;;;;;;26.79;69.94;97538.02;1708135;83;22013;-85
2021/07/14 06:46:56;;;;;;;;;;;;;;;26.95;69.65;97544.07;1708397;83;25990;-84
2021/07/14 06:49:22;;;;;;;;;;;;;;;27.12;69.31;97547.41;1767644;80;20338;-85
2021/07/14 06:51:48;;;;;;;;;;;;;;;27.25;68.91;97549.86;1765920;80;20236;-84
2021/07/14 06:54:14;;;;;;;;;;;;;;;27.40;68.43;97552.88;1771646;80;20731;-84
2021/07/14 06:56:40;;;;;;;;;;;;;;;27.54;68.10;97552.16;1772743;79;22041;-84
2021/07/14 06:59:06;;;;;;;;;;;;;;;27.60;67.95;97552.03;1771003;80;25937;-85
2021/07/14 07:01:32;;;;;;;;;;;;;;;27.66;67.82;97565.02;1767674;80;20271;-85
2021/07/14 07:04:00;;;;;;;;;;;;;;;27.67;67.53;97569.34;1769759;80;20252;-85
2021/07/14 07:06:26;;;;;;;;;;;;;;;27.64;67.11;97564.46;1731916;82;25779;-85
2021/07/14 07:08:52;;;;;;;;;;;;;;;27.66;66.85;97559.12;1712355;82;22064;-89
2021/07/14 07:11:18;;;;;;;;;;;;;;;27.69;66.55;97565.39;1703782;84;21080;-89
2021/07/14 07:13:46;;;;;;;;;;;;;;;27.76;66.37;97561.23;1702208;83;20266;-89
2021/07/14 07:16:12;;;;;;;;;;;;;;;27.80;66.31;97562.37;1769537;80;20236;-88
2021/07/14 07:18:38;;;;;;;;;;;;;;;27.77;65.98;97565.52;1769613;79;20802;-88
2021/07/14 07:21:07;;;;;;;;;;;;;;;27.80;65.79;97560.51;1770290;80;20890;-89
2021/07/14 07:23:34;;;;;;;;;;;;;;;27.88;65.66;97560.13;1768533;80;26790;-89
2021/07/14 07:26:03;;;;;;;;;;;;;;;28.04;65.50;97567.17;1767658;80;24540;-89
2021/07/14 07:28:36;;;;;;;;;;;;;;;28.16;65.29;97561.23;1771852;80;20432;-89
2021/07/14 07:31:01;;;;;;;;;;;;;;;28.24;64.88;97563.02;1744827;80;24909;-89
2021/07/14 07:33:27;;;;;;;;;;;;;;;28.31;64.48;97562.88;1772296;80;21985;-89
2021/07/14 07:35:53;;;;;;;;;;;;;;;28.43;64.22;97552.03;1768164;79;26047;-89
2021/07/14 07:38:19;;;;;;;;;;;;;;;28.60;64.09;97559.61;1771207;80;24377;-89
2021/07/14 07:40:47;;;;;;;;;;;;;;;28.75;63.90;97557.19;1764312;79;20228;-89
2021/07/14 07:43:13;;;;;;;;;;;;;;;28.88;63.65;97560.92;1743072;81;24740;-89
2021/07/14 07:45:39;;;;;;;;;;;;;;;28.99;63.34;97571.33;1771989;80;22077;-89
2021/07/14 07:48:05;;;;;;;;;;;;;;;29.09;63.11;97570.14;1772676;80;21339;-89
2021/07/14 07:50:34;;;;;;;;;;;;;;;29.27;63.03;97580.66;1765234;80;24499;-89
2021/07/14 07:53:00;;;;;;;;;;;;;;;29.50;62.91;97591.29;1770257;80;20218;-89
2021/07/14 07:55:32;;;;;;;;;;;;;;;29.63;62.70;97590.63;1771668;80;20376;-89
2021/07/14 07:57:58;;;;;;;;;;;;;;;29.76;62.17;97597.02;1769635;80;21947;-89
2021/07/14 08:00:24;;;;;;;;;;;;;;;29.89;61.75;97602.06;1763804;79;25919;-89
2021/07/14 08:02:50;;;;;;;;;;;;;;;30.02;61.41;97602.23;1767737;80;20889;-89
2021/07/14 08:05:16;;;;;;;;;;;;;;;30.15;60.53;97604.02;1766398;80;20282;-89
2021/07/14 08:07:43;;;;;;;;;;;;;;;30.30;59.94;97612.82;1731737;81;20414;-89
2021/07/14 08:10:10;;;;;;;;;;;;;;;30.44;59.37;97615.95;1730864;81;22124;-89
2021/07/14 08:12:36;;;;;;;;;;;;;;;30.53;58.65;97615.80;1691340;84;26044;-89
2021/07/14 08:15:04;;;;;;;;;;;;;;;30.58;57.98;97627.48;1692775;83;24511;-89
2021/07/14 08:17:30;;;;;;;;;;;;;;;30.55;57.18;97626.62;1693588;84;20911;-89
2021/07/14 08:19:56;;;;;;;;;;;;;;;30.55;56.70;97636.63;1694683;83;25133;-89
2021/07/14 08:22:22;;;;;;;;;;;;;;;30.58;56.42;97646.92;1694176;84;22040;-89
2021/07/14 08:24:48;;;;;;;;;;;;;;;30.61;56.24;97652.61;1696219;84;20963;-89
2021/07/14 08:27:14;;;;;;;;;;;;;;;30.54;56.03;97656.08;1771636;80;20846;-89
2021/07/14 08:29:42;;;;;;;;;;;;;;;30.46;55.77;97676.73;1768448;80;20237;-88
2021/07/14 08:32:14;;;;;;;;;;;;;;;30.32;55.64;97688.46;1767425;79;25018;-88
2021/07/14 08:34:40;;;;;;;;;;;;;;;30.09;55.49;97725.13;1768605;80;21956;-88
2021/07/14 08:37:09;;;;;;;;;;;;;;;29.79;55.30;97738.13;1770554;79;21083;-88
2021/07/14 08:39:35;;;;;;;;;;;;;;;29.42;55.08;97742.69;1769013;80;24663;-89
2021/07/14 08:42:03;;;;;;;;;;;;;;;28.99;54.88;97750.50;1764557;80;20498;-88
2021/07/14 08:44:30;;;;;;;;;;;;;;;28.62;54.88;97765.66;1760132;81;25099;-88
2021/07/14 08:46:57;;;;;;;;;;;;;;;28.31;54.96;97785.45;1757165;81;20246;-89
2021/07/14 08:49:23;;;;;;;;;;;;;;;28.00;55.07;97778.51;1762560;81;25994;-88
2021/07/14 08:51:51;;;;;;;;;;;;;;;27.76;55.26;97798.69;1764075;81;24563;-88
2021/07/14 08:54:21;;;;;;;;;;;;;;;27.55;55.50;97804.59;1761516;81;20225;-88
2021/07/14 08:56:47;;;;;;;;;;;;;;;27.38;55.78;97786.95;1761474;81;24987;-88
2021/07/14 08:59:12;;;;;;;;;;;;;;;27.21;56.03;97789.99;1759118;81;22155;-88
2021/07/14 09:01:38;;;;;;;;;;;;;;;27.02;56.22;97788.38;1763652;81;26172;-88
2021/07/14 09:04:06;;;;;;;;;;;;;;;26.94;56.46;97786.86;1760528;81;20248;-89
2021/07/14 09:06:33;;;;;;;;;;;;;;;26.89;56.70;97784.55;1761127;81;20242;-88
2021/07/14 09:08:59;;;;;;;;;;;;;;;26.85;56.94;97782.78;1762851;79;25002;-88
2021/07/14 09:11:24;;;;;;;;;;;;;;;26.85;57.13;97780.63;1761588;81;20366;-88
2021/07/14 09:13:50;;;;;;;;;;;;;;;26.85;57.35;97778.76;1764290;79;26034;-88
2021/07/14 09:16:34;;;;;;;;;;;;;;;26.85;57.48;97777.42;1762887;81;20313;-88
2021/07/14 09:19:15;;;;;;;;;;;;;;;26.86;57.62;97787.12;1760077;81;20532;-88
2021/07/14 09:21:43;;;;;;;;;;;;;;;26.86;57.84;97791.15;1762268;81;24929;-88
2021/07/14 09:24:27;;;;;;;;;;;;;;;26.84;57.95;97791.09;1760839;81;21991;-89
2021/07/14 09:26:55;;;;;;;;;;;;;;;26.81;58.08;97788.32;1760791;81;25982;-88
2021/07/14 09:29:23;;;;;;;;;;;;;;;26.81;58.29;97794.21;1762409;81;24437;-88
2021/07/14 09:31:49;;;;;;;;;;;;;;;26.77;58.39;97795.20;1759564;81;20254;-88
2021/07/14 09:34:26;;;;;;;;;;;;;;;26.74;58.50;97792.95;1762761;81;25115;-88
2021/07/14 09:36:58;;;;;;;;;;;;;;;26.72;58.60;97792.89;1732883;82;22924;-88
2021/07/14 09:39:34;;;;;;;;;;;;;;;26.70;58.72;97784.23;1760409;81;25970;-88
2021/07/14 09:42:05;;;;;;;;;;;;;;;26.70;58.83;97772.15;1758930;81;24538;-88
2021/07/14 09:44:31;;;;;;;;;;;;;;;26.72;58.98;97762.02;1760665;81;20215;-88
2021/07/14 09:47:12;;;;;;;;;;;;;;;26.76;59.17;97765.36;1762993;81;20792;-89
2021/07/14 09:49:39;;;;;;;;;;;;;;;26.77;59.32;97756.27;1759257;81;22506;-88
2021/07/14 09:52:07;;;;;;;;;;;;;;;26.77;59.43;97748.73;1762146;81;26056;-88
2021/07/14 09:54:34;;;;;;;;;;;;;;;26.74;59.57;97747.30;1762976;81;24483;-88
2021/07/14 09:57:18;;;;;;;;;;;;;;;26.79;59.73;97742.59;1761861;81;20219;-88
2021/07/14 09:59:52;;;;;;;;;;;;;;;26.80;59.91;97740.20;1759152;81;25710;-88
2021/07/14 10:02:28;;;;;;;;;;;;;;;26.83;60.05;97739.25;1762055;81;21940;-88
2021/07/14 10:04:56;;;;;;;;;;;;;;;26.99;60.29;97737.30;1761756;81;26194;-87
2021/07/14 10:07:30;;;;;;;;;;;;;;;26.98;60.39;97725.44;1759654;81;25358;-88
2021/07/14 10:09:51;;;;;;;;;;;;;;;26.95;60.43;97719.16;1761513;81;20259;-88
2021/07/14 10:12:27;;;;;;;;;;;;;;;26.92;60.43;97704.86;1760926;80;20773;-88
2021/07/14 10:15:10;;;;;;;;;;;;;;;26.95;60.52;97710.58;1762872;81;22789;-88
2021/07/14 10:17:47;;;;;;;;;;;;;;;27.03;60.61;97706.24;1760597;81;26170;-88
2021/07/14 10:20:25;;;;;;;;;;;;;;;27.12;60.69;97705.89;1760407;80;24438;-88
2021/07/14 10:22:58;;;;;;;;;;;;;;;27.25;60.82;97703.84;1760766;81;20289;-89
2021/07/14 10:25:25;;;;;;;;;;;;;;;27.41;60.91;97711.23;1760585;80;25018;-88
2021/07/14 10:27:53;;;;;;;;;;;;;;;27.53;60.84;97712.62;1754666;81;22011;-89
2021/07/14 10:30:20;;;;;;;;;;;;;;;27.70;60.80;97718.95;1758666;81;26116;-88
2021/07/14 10:32:50;;;;;;;;;;;;;;;27.85;60.74;97719.29;1763025;81;24046;-88
2021/07/14 10:35:16;;;;;;;;;;;;;;;27.99;60.68;97721.20;1732762;81;20155;-88
2021/07/14 10:37:53;;;;;;;;;;;;;;;28.15;60.58;97725.89;1759801;80;24944;-88
2021/07/14 10:40:20;;;;;;;;;;;;;;;28.14;60.24;97727.49;1760642;80;22099;-88
2021/07/14 10:42:47;;;;;;;;;;;;;;;28.28;60.14;97739.10;1764758;80;25988;-88
2021/07/14 10:45:14;;;;;;;;;;;;;;;28.26;59.85;97739.86;1767374;80;24462;-88
2021/07/14 10:47:41;;;;;;;;;;;;;;;28.35;59.76;97744.36;1771998;79;20226;-88
2021/07/14 10:50:14;;;;;;;;;;;;;;;28.55;59.84;97752.03;1767155;80;24752;-88
2021/07/14 10:52:40;;;;;;;;;;;;;;;28.75;59.90;97761.09;1772803;80;22074;-88
2021/07/14 10:55:15;;;;;;;;;;;;;;;28.83;59.81;97766.09;1769000;80;26797;-88
2021/07/14 10:57:41;;;;;;;;;;;;;;;28.87;59.69;97768.58;1755872;80;24650;-88
2021/07/14 11:00:10;;;;;;;;;;;;;;;28.92;59.58;97774.06;1742415;81;20276;-88
2021/07/14 11:02:43;;;;;;;;;;;;;;;28.92;59.41;97772.72;1724757;82;25267;-88
2021/07/14 11:05:10;;;;;;;;;;;;;;;28.94;59.39;97767.92;1733400;82;21969;-88
2021/07/14 11:07:38;;;;;;;;;;;;;;;28.99;59.35;97770.71;1702698;83;26162;-88
2021/07/14 11:10:23;;;;;;;;;;;;;;;28.97;59.29;97768.25;1724265;81;24343;-88
2021/07/14 11:12:49;;;;;;;;;;;;;;;28.99;59.25;97772.88;1772651;80;20464;-88
2021/07/14 11:15:29;;;;;;;;;;;;;;;29.01;59.18;97784.77;1767088;79;25014;-88
2021/07/14 11:17:55;;;;;;;;;;;;;;;28.96;59.08;97787.38;1733714;82;21899;-88
2021/07/14 11:20:22;;;;;;;;;;;;;;;28.91;58.94;97786.72;1733645;82;26363;-88
2021/07/14 11:22:58;;;;;;;;;;;;;;;28.91;58.99;97781.33;1762840;80;24585;-88
2021/07/14 11:25:24;;;;;;;;;;;;;;;28.85;58.91;97785.01;1769187;79;20523;-88
2021/07/14 11:27:55;;;;;;;;;;;;;;;28.81;58.88;97781.66;1731771;82;25122;-88
2021/07/14 11:30:32;;;;;;;;;;;;;;;28.76;58.78;97788.30;1712359;82;22175;-88
2021/07/14 11:32:59;;;;;;;;;;;;;;;28.68;58.59;97789.47;1714392;82;26053;-88
2021/07/14 11:35:28;;;;;;;;;;;;;;;28.51;58.19;97785.35;1707224;83;24474;-88
2021/07/14 11:37:57;;;;;;;;;;;;;;;28.30;57.73;97787.31;1707879;83;20348;-89
2021/07/14 11:40:25;;;;;;;;;;;;;;;28.19;57.58;97790.31;1709693;83;25649;-89
2021/07/14 11:42:59;;;;;;;;;;;;;;;28.15;57.41;97793.68;1703229;83;22091;-89
2021/07/14 11:45:36;;;;;;;;;;;;;;;28.06;57.23;97803.14;1707403;83;25989;-89
2021/07/14 11:48:10;;;;;;;;;;;;;;;27.95;57.05;97806.64;1728038;82;24515;-88
2021/07/14 11:50:58;;;;;;;;;;;;;;;27.91;56.99;97798.75;1773029;80;20165;-89
2021/07/14 11:53:33;;;;;;;;;;;;;;;27.76;56.88;97800.03;1769490;80;24960;-89
2021/07/14 11:56:01;;;;;;;;;;;;;;;27.63;56.78;97792.17;1773310;80;21963;-89
2021/07/14 11:58:44;;;;;;;;;;;;;;;27.65;56.87;97780.67;1771206;80;26049;-88
2021/07/14 12:01:12;;;;;;;;;;;;;;;27.72;56.91;97785.91;1765821;79;24479;-88
2021/07/14 12:03:38;;;;;;;;;;;;;;;27.69;56.92;97772.42;1745897;80;21139;-89
2021/07/14 12:06:22;;;;;;;;;;;;;;;27.69;56.89;97775.11;1739649;80;20329;-89
2021/07/14 12:08:48;;;;;;;;;;;;;;;27.66;56.89;97784.15;1766953;80;22054;-89
2021/07/14 12:11:16;;;;;;;;;;;;;;;27.63;56.89;97776.04;1769734;80;26003;-89
2021/07/14 12:13:42;;;;;;;;;;;;;;;27.60;56.87;97777.86;1770478;80;24686;-89
2021/07/14 12:16:08;;;;;;;;;;;;;;;27.66;57.02;97781.46;1770157;80;20272;-89
2021/07/14 12:18:34;;;;;;;;;;;;;;;27.66;57.06;97783.63;1767073;80;20920;-89
2021/07/14 12:21:01;;;;;;;;;;;;;;;27.68;57.06;97790.13;1767453;79;21923;-89
2021/07/14 12:23:29;;;;;;;;;;;;;;;27.64;57.01;97762.89;1770466;80;26780;-89
2021/07/14 12:25:58;;;;;;;;;;;;;;;27.65;57.05;97764.53;1732754;82;24498;-88
2021/07/14 12:28:26;;;;;;;;;;;;;;;27.65;57.03;97761.84;1704688;83;20313;-89
2021/07/14 12:30:52;;;;;;;;;;;;;;;27.70;57.02;97753.90;1767731;80;24978;-87
2021/07/14 12:33:20;;;;;;;;;;;;;;;27.79;57.11;97758.39;1772412;80;22025;-87
2021/07/14 12:35:48;;;;;;;;;;;;;;;27.89;57.18;97764.83;1744940;80;27583;-87
2021/07/14 12:38:14;;;;;;;;;;;;;;;27.98;57.10;97772.56;1768302;80;24527;-87
2021/07/14 12:40:51;;;;;;;;;;;;;;;28.02;57.04;97771.86;1764704;79;20526;-88
2021/07/14 12:43:17;;;;;;;;;;;;;;;28.03;57.07;97766.77;1729770;82;24974;-86
2021/07/14 12:45:46;;;;;;;;;;;;;;;27.96;56.92;97766.59;1732982;80;20184;-87
2021/07/14 12:48:18;;;;;;;;;;;;;;;27.93;56.80;97763.83;1733270;82;25952;-86
2021/07/14 12:50:46;;;;;;;;;;;;;;;27.94;56.74;97764.64;1730637;82;24464;-86
2021/07/14 12:53:13;;;;;;;;;;;;;;;27.98;56.75;97759.11;1732719;82;20358;-86
2021/07/14 12:55:40;;;;;;;;;;;;;;;28.07;56.77;97758.52;1702835;84;25085;-86
2021/07/14 12:58:07;;;;;;;;;;;;;;;28.17;56.75;97761.47;1702888;84;22055;-86
2021/07/14 13:00:34;;;;;;;;;;;;;;;28.25;56.79;97757.08;1712346;83;26002;-86
2021/07/14 13:03:02;;;;;;;;;;;;;;;28.39;56.83;97767.58;1713070;83;24497;-86